sensor_id;sensor_type;location;lat;lon;timestamp;P1;durP1;ratioP1;P2;durP2;ratioP2
10134;SDS011;5107;48.850;8.924;2023-08-31T00:01:36;4.27;;;2.90;;
10134;SDS011;5107;48.850;8.924;2023-08-31T00:04:03;3.77;;;2.60;;
10134;SDS011;5107;48.850;8.924;2023-08-31T00:06:29;4.03;;;2.77;;
10134;SDS011;5107;48.850;8.924;2023-08-31T00:08:55;4.20;;;2.90;;
10134;SDS011;5107;48.850;8.924;2023-08-31T00:11:20;3.13;;;2.50;;
10134;SDS011;5107;48.850;8.924;2023-08-31T00:13:46;4.30;;;3.00;;
10134;SDS011;5107;48.850;8.924;2023-08-31T00:16:11;4.17;;;3.00;;
10134;SDS011;5107;48.850;8.924;2023-08-31T00:18:37;4.10;;;2.90;;
10134;SDS011;5107;48.850;8.924;2023-08-31T00:21:03;3.43;;;2.77;;
10134;SDS011;5107;48.850;8.924;2023-08-31T00:23:29;6.50;;;2.87;;
10134;SDS011;5107;48.850;8.924;2023-08-31T00:25:54;3.80;;;3.10;;
10134;SDS011;5107;48.850;8.924;2023-08-31T00:28:22;4.73;;;2.73;;
10134;SDS011;5107;48.850;8.924;2023-08-31T00:30:47;3.60;;;2.87;;
10134;SDS011;5107;48.850;8.924;2023-08-31T00:33:13;4.67;;;3.60;;
10134;SDS011;5107;48.850;8.924;2023-08-31T00:35:39;4.40;;;3.20;;
10134;SDS011;5107;48.850;8.924;2023-08-31T00:38:08;5.33;;;3.27;;
10134;SDS011;5107;48.850;8.924;2023-08-31T00:40:37;4.40;;;3.10;;
10134;SDS011;5107;48.850;8.924;2023-08-31T00:43:06;4.30;;;3.00;;
10134;SDS011;5107;48.850;8.924;2023-08-31T00:45:32;5.63;;;3.10;;
10134;SDS011;5107;48.850;8.924;2023-08-31T00:47:58;3.27;;;2.70;;
10134;SDS011;5107;48.850;8.924;2023-08-31T00:50:23;5.63;;;3.00;;
10134;SDS011;5107;48.850;8.924;2023-08-31T00:52:48;3.97;;;2.80;;
10134;SDS011;5107;48.850;8.924;2023-08-31T00:55:14;3.97;;;3.00;;
10134;SDS011;5107;48.850;8.924;2023-08-31T00:57:42;4.43;;;2.97;;
10134;SDS011;5107;48.850;8.924;2023-08-31T01:00:08;3.47;;;2.80;;
10134;SDS011;5107;48.850;8.924;2023-08-31T01:02:40;3.97;;;3.00;;
10134;SDS011;5107;48.850;8.924;2023-08-31T01:05:10;4.37;;;2.90;;
10134;SDS011;5107;48.850;8.924;2023-08-31T01:07:57;3.80;;;2.63;;
10134;SDS011;5107;48.850;8.924;2023-08-31T01:10:37;6.63;;;3.10;;
10134;SDS011;5107;48.850;8.924;2023-08-31T01:13:07;5.37;;;3.20;;
10134;SDS011;5107;48.850;8.924;2023-08-31T01:15:39;4.83;;;3.23;;
10134;SDS011;5107;48.850;8.924;2023-08-31T01:18:06;4.77;;;3.47;;
10134;SDS011;5107;48.850;8.924;2023-08-31T01:26:23;4.33;;;3.17;;
10134;SDS011;5107;48.850;8.924;2023-08-31T01:28:49;6.63;;;4.57;;
10134;SDS011;5107;48.850;8.924;2023-08-31T01:31:16;7.60;;;3.73;;
10134;SDS011;5107;48.850;8.924;2023-08-31T01:33:41;5.93;;;3.10;;
10134;SDS011;5107;48.850;8.924;2023-08-31T01:36:08;6.60;;;3.40;;
10134;SDS011;5107;48.850;8.924;2023-08-31T01:38:42;5.03;;;3.70;;
10134;SDS011;5107;48.850;8.924;2023-08-31T01:41:13;5.47;;;3.40;;
10134;SDS011;5107;48.850;8.924;2023-08-31T01:43:41;3.87;;;3.47;;
10134;SDS011;5107;48.850;8.924;2023-08-31T01:46:07;5.23;;;3.97;;
10134;SDS011;5107;48.850;8.924;2023-08-31T01:48:39;4.70;;;3.80;;
10134;SDS011;5107;48.850;8.924;2023-08-31T01:51:06;4.90;;;3.53;;
10134;SDS011;5107;48.850;8.924;2023-08-31T01:53:32;5.40;;;3.63;;
10134;SDS011;5107;48.850;8.924;2023-08-31T01:55:58;4.17;;;3.60;;
10134;SDS011;5107;48.850;8.924;2023-08-31T01:58:23;4.00;;;3.60;;
10134;SDS011;5107;48.850;8.924;2023-08-31T02:00:48;4.20;;;3.20;;
10134;SDS011;5107;48.850;8.924;2023-08-31T02:03:13;4.60;;;3.43;;
10134;SDS011;5107;48.850;8.924;2023-08-31T02:05:39;6.07;;;3.60;;
10134;SDS011;5107;48.850;8.924;2023-08-31T02:08:04;4.33;;;3.70;;
10134;SDS011;5107;48.850;8.924;2023-08-31T02:10:30;5.23;;;3.70;;
10134;SDS011;5107;48.850;8.924;2023-08-31T02:12:55;5.97;;;3.63;;
10134;SDS011;5107;48.850;8.924;2023-08-31T02:15:20;4.07;;;3.30;;
10134;SDS011;5107;48.850;8.924;2023-08-31T02:17:46;7.10;;;3.00;;
10134;SDS011;5107;48.850;8.924;2023-08-31T02:20:11;4.60;;;3.40;;
10134;SDS011;5107;48.850;8.924;2023-08-31T02:22:36;5.10;;;3.40;;
10134;SDS011;5107;48.850;8.924;2023-08-31T02:25:02;4.83;;;3.67;;
10134;SDS011;5107;48.850;8.924;2023-08-31T02:27:27;4.20;;;3.20;;
10134;SDS011;5107;48.850;8.924;2023-08-31T02:29:53;5.30;;;3.17;;
10134;SDS011;5107;48.850;8.924;2023-08-31T02:32:18;4.10;;;3.30;;
10134;SDS011;5107;48.850;8.924;2023-08-31T02:34:44;5.77;;;3.27;;
10134;SDS011;5107;48.850;8.924;2023-08-31T02:37:09;5.60;;;3.20;;
10134;SDS011;5107;48.850;8.924;2023-08-31T02:39:35;3.60;;;3.10;;
10134;SDS011;5107;48.850;8.924;2023-08-31T02:42:00;8.23;;;3.80;;
10134;SDS011;5107;48.850;8.924;2023-08-31T02:44:26;4.47;;;3.33;;
10134;SDS011;5107;48.850;8.924;2023-08-31T02:46:51;3.77;;;3.37;;
10134;SDS011;5107;48.850;8.924;2023-08-31T02:49:16;5.60;;;3.50;;
10134;SDS011;5107;48.850;8.924;2023-08-31T02:51:42;4.80;;;3.33;;
10134;SDS011;5107;48.850;8.924;2023-08-31T02:54:07;4.07;;;3.20;;
10134;SDS011;5107;48.850;8.924;2023-08-31T02:56:32;5.50;;;3.60;;
10134;SDS011;5107;48.850;8.924;2023-08-31T02:58:57;4.37;;;3.13;;
10134;SDS011;5107;48.850;8.924;2023-08-31T03:01:23;4.97;;;3.23;;
10134;SDS011;5107;48.850;8.924;2023-08-31T03:03:49;4.10;;;3.10;;
10134;SDS011;5107;48.850;8.924;2023-08-31T03:06:15;5.13;;;3.20;;
10134;SDS011;5107;48.850;8.924;2023-08-31T03:08:40;7.60;;;3.23;;
10134;SDS011;5107;48.850;8.924;2023-08-31T03:11:05;4.80;;;3.30;;
10134;SDS011;5107;48.850;8.924;2023-08-31T03:13:31;4.47;;;3.03;;
10134;SDS011;5107;48.850;8.924;2023-08-31T03:15:57;5.73;;;3.50;;
10134;SDS011;5107;48.850;8.924;2023-08-31T03:18:23;4.90;;;3.60;;
10134;SDS011;5107;48.850;8.924;2023-08-31T03:20:48;4.17;;;3.27;;
10134;SDS011;5107;48.850;8.924;2023-08-31T03:23:14;4.53;;;3.10;;
10134;SDS011;5107;48.850;8.924;2023-08-31T03:25:40;4.90;;;3.00;;
10134;SDS011;5107;48.850;8.924;2023-08-31T03:28:05;5.10;;;3.37;;
10134;SDS011;5107;48.850;8.924;2023-08-31T03:30:30;3.80;;;3.20;;
10134;SDS011;5107;48.850;8.924;2023-08-31T03:32:56;5.97;;;3.10;;
10134;SDS011;5107;48.850;8.924;2023-08-31T03:35:21;6.37;;;3.13;;
10134;SDS011;5107;48.850;8.924;2023-08-31T03:37:52;4.63;;;3.13;;
10134;SDS011;5107;48.850;8.924;2023-08-31T03:40:18;7.13;;;3.40;;
10134;SDS011;5107;48.850;8.924;2023-08-31T03:42:44;5.27;;;3.00;;
10134;SDS011;5107;48.850;8.924;2023-08-31T03:45:09;4.27;;;3.30;;
10134;SDS011;5107;48.850;8.924;2023-08-31T03:47:36;5.37;;;3.47;;
10134;SDS011;5107;48.850;8.924;2023-08-31T03:50:01;4.10;;;3.27;;
10134;SDS011;5107;48.850;8.924;2023-08-31T03:52:27;5.00;;;3.37;;
10134;SDS011;5107;48.850;8.924;2023-08-31T03:54:53;3.90;;;3.50;;
10134;SDS011;5107;48.850;8.924;2023-08-31T03:57:18;4.60;;;3.20;;
10134;SDS011;5107;48.850;8.924;2023-08-31T03:59:43;4.70;;;2.90;;
10134;SDS011;5107;48.850;8.924;2023-08-31T04:02:11;3.80;;;2.90;;
10134;SDS011;5107;48.850;8.924;2023-08-31T04:04:37;5.17;;;3.00;;
10134;SDS011;5107;48.850;8.924;2023-08-31T04:07:02;5.00;;;2.83;;
10134;SDS011;5107;48.850;8.924;2023-08-31T04:09:28;5.57;;;2.70;;
10134;SDS011;5107;48.850;8.924;2023-08-31T04:11:55;5.77;;;2.93;;
10134;SDS011;5107;48.850;8.924;2023-08-31T04:14:20;5.77;;;3.27;;
10134;SDS011;5107;48.850;8.924;2023-08-31T04:16:45;4.23;;;3.07;;
10134;SDS011;5107;48.850;8.924;2023-08-31T04:19:14;4.37;;;3.17;;
10134;SDS011;5107;48.850;8.924;2023-08-31T04:21:39;3.97;;;3.10;;
10134;SDS011;5107;48.850;8.924;2023-08-31T04:24:05;4.20;;;3.20;;
10134;SDS011;5107;48.850;8.924;2023-08-31T04:26:30;5.23;;;3.13;;
10134;SDS011;5107;48.850;8.924;2023-08-31T04:28:56;3.97;;;2.40;;
10134;SDS011;5107;48.850;8.924;2023-08-31T04:31:21;4.63;;;2.87;;
10134;SDS011;5107;48.850;8.924;2023-08-31T04:33:47;5.17;;;3.10;;
10134;SDS011;5107;48.850;8.924;2023-08-31T04:36:13;3.03;;;2.73;;
10134;SDS011;5107;48.850;8.924;2023-08-31T04:38:38;10.67;;;3.13;;
10134;SDS011;5107;48.850;8.924;2023-08-31T04:41:04;6.00;;;3.00;;
10134;SDS011;5107;48.850;8.924;2023-08-31T04:43:29;5.83;;;3.07;;
10134;SDS011;5107;48.850;8.924;2023-08-31T04:45:55;4.37;;;2.87;;
10134;SDS011;5107;48.850;8.924;2023-08-31T04:48:20;6.53;;;2.87;;
10134;SDS011;5107;48.850;8.924;2023-08-31T04:50:46;4.67;;;2.73;;
10134;SDS011;5107;48.850;8.924;2023-08-31T04:53:11;5.77;;;3.20;;
10134;SDS011;5107;48.850;8.924;2023-08-31T04:55:37;4.87;;;2.90;;
10134;SDS011;5107;48.850;8.924;2023-08-31T04:58:02;7.57;;;3.10;;
10134;SDS011;5107;48.850;8.924;2023-08-31T05:00:28;4.77;;;2.80;;
10134;SDS011;5107;48.850;8.924;2023-08-31T05:02:54;4.17;;;2.93;;
10134;SDS011;5107;48.850;8.924;2023-08-31T05:05:20;6.33;;;3.17;;
10134;SDS011;5107;48.850;8.924;2023-08-31T05:07:45;5.23;;;3.10;;
10134;SDS011;5107;48.850;8.924;2023-08-31T05:10:11;5.30;;;2.90;;
10134;SDS011;5107;48.850;8.924;2023-08-31T05:12:36;5.50;;;3.13;;
10134;SDS011;5107;48.850;8.924;2023-08-31T05:15:02;5.07;;;2.83;;
10134;SDS011;5107;48.850;8.924;2023-08-31T05:17:27;4.13;;;2.77;;
10134;SDS011;5107;48.850;8.924;2023-08-31T05:19:53;4.47;;;2.60;;
10134;SDS011;5107;48.850;8.924;2023-08-31T05:22:18;3.77;;;2.90;;
10134;SDS011;5107;48.850;8.924;2023-08-31T05:24:43;4.87;;;2.93;;
10134;SDS011;5107;48.850;8.924;2023-08-31T05:27:09;6.93;;;2.90;;
10134;SDS011;5107;48.850;8.924;2023-08-31T05:29:34;8.43;;;2.90;;
10134;SDS011;5107;48.850;8.924;2023-08-31T05:31:59;5.10;;;2.60;;
10134;SDS011;5107;48.850;8.924;2023-08-31T05:34:25;3.90;;;2.63;;
10134;SDS011;5107;48.850;8.924;2023-08-31T05:36:51;3.60;;;2.57;;
10134;SDS011;5107;48.850;8.924;2023-08-31T05:39:16;5.00;;;2.63;;
10134;SDS011;5107;48.850;8.924;2023-08-31T05:41:42;4.07;;;2.63;;
10134;SDS011;5107;48.850;8.924;2023-08-31T05:44:08;3.93;;;2.53;;
10134;SDS011;5107;48.850;8.924;2023-08-31T05:46:33;3.30;;;2.70;;
10134;SDS011;5107;48.850;8.924;2023-08-31T05:48:59;3.17;;;2.50;;
10134;SDS011;5107;48.850;8.924;2023-08-31T05:51:24;6.03;;;2.53;;
10134;SDS011;5107;48.850;8.924;2023-08-31T05:53:49;3.43;;;2.70;;
10134;SDS011;5107;48.850;8.924;2023-08-31T05:56:15;3.27;;;2.23;;
10134;SDS011;5107;48.850;8.924;2023-08-31T05:58:40;13.13;;;9.20;;
10134;SDS011;5107;48.850;8.924;2023-08-31T06:01:05;9.20;;;4.13;;
10134;SDS011;5107;48.850;8.924;2023-08-31T06:03:32;5.47;;;3.00;;
10134;SDS011;5107;48.850;8.924;2023-08-31T06:05:57;4.80;;;2.97;;
10134;SDS011;5107;48.850;8.924;2023-08-31T06:08:24;3.53;;;2.50;;
10134;SDS011;5107;48.850;8.924;2023-08-31T06:10:49;4.10;;;2.30;;
10134;SDS011;5107;48.850;8.924;2023-08-31T06:13:14;4.47;;;2.37;;
10134;SDS011;5107;48.850;8.924;2023-08-31T06:15:40;5.30;;;2.60;;
10134;SDS011;5107;48.850;8.924;2023-08-31T06:18:06;3.90;;;2.40;;
10134;SDS011;5107;48.850;8.924;2023-08-31T06:20:31;3.00;;;2.27;;
10134;SDS011;5107;48.850;8.924;2023-08-31T06:22:57;5.47;;;2.70;;
10134;SDS011;5107;48.850;8.924;2023-08-31T06:25:22;4.40;;;2.50;;
10134;SDS011;5107;48.850;8.924;2023-08-31T06:27:48;5.73;;;2.43;;
10134;SDS011;5107;48.850;8.924;2023-08-31T06:30:14;3.63;;;2.40;;
10134;SDS011;5107;48.850;8.924;2023-08-31T06:32:46;4.70;;;2.43;;
10134;SDS011;5107;48.850;8.924;2023-08-31T06:35:13;3.57;;;2.10;;
10134;SDS011;5107;48.850;8.924;2023-08-31T06:37:39;4.70;;;2.33;;
10134;SDS011;5107;48.850;8.924;2023-08-31T06:40:05;2.80;;;2.00;;
10134;SDS011;5107;48.850;8.924;2023-08-31T06:42:33;4.67;;;2.30;;
10134;SDS011;5107;48.850;8.924;2023-08-31T06:44:58;3.80;;;2.40;;
10134;SDS011;5107;48.850;8.924;2023-08-31T06:47:24;5.10;;;2.63;;
10134;SDS011;5107;48.850;8.924;2023-08-31T06:49:49;3.40;;;2.10;;
10134;SDS011;5107;48.850;8.924;2023-08-31T06:52:14;5.50;;;2.20;;
10134;SDS011;5107;48.850;8.924;2023-08-31T06:54:41;3.47;;;2.43;;
10134;SDS011;5107;48.850;8.924;2023-08-31T06:57:06;6.03;;;2.27;;
10134;SDS011;5107;48.850;8.924;2023-08-31T06:59:32;3.97;;;2.20;;
10134;SDS011;5107;48.850;8.924;2023-08-31T07:01:57;5.40;;;2.10;;
10134;SDS011;5107;48.850;8.924;2023-08-31T07:04:22;3.53;;;2.00;;
10134;SDS011;5107;48.850;8.924;2023-08-31T07:06:48;4.93;;;2.30;;
10134;SDS011;5107;48.850;8.924;2023-08-31T07:09:13;5.67;;;2.47;;
10134;SDS011;5107;48.850;8.924;2023-08-31T07:11:38;5.43;;;2.60;;
10134;SDS011;5107;48.850;8.924;2023-08-31T07:14:04;3.73;;;2.07;;
10134;SDS011;5107;48.850;8.924;2023-08-31T07:16:29;5.27;;;2.00;;
10134;SDS011;5107;48.850;8.924;2023-08-31T07:18:54;3.93;;;2.30;;
10134;SDS011;5107;48.850;8.924;2023-08-31T07:21:20;3.90;;;2.10;;
10134;SDS011;5107;48.850;8.924;2023-08-31T07:23:45;3.03;;;2.20;;
10134;SDS011;5107;48.850;8.924;2023-08-31T07:26:11;4.20;;;2.27;;
10134;SDS011;5107;48.850;8.924;2023-08-31T07:28:36;3.27;;;1.87;;
10134;SDS011;5107;48.850;8.924;2023-08-31T07:31:05;4.97;;;2.07;;
10134;SDS011;5107;48.850;8.924;2023-08-31T07:33:31;4.00;;;2.03;;
10134;SDS011;5107;48.850;8.924;2023-08-31T07:35:57;3.53;;;2.10;;
10134;SDS011;5107;48.850;8.924;2023-08-31T07:38:23;2.80;;;2.10;;
10134;SDS011;5107;48.850;8.924;2023-08-31T07:40:49;4.27;;;1.93;;
10134;SDS011;5107;48.850;8.924;2023-08-31T07:43:14;2.63;;;1.90;;
10134;SDS011;5107;48.850;8.924;2023-08-31T07:45:40;3.73;;;2.00;;
10134;SDS011;5107;48.850;8.924;2023-08-31T07:48:05;2.50;;;2.20;;
10134;SDS011;5107;48.850;8.924;2023-08-31T07:50:32;5.93;;;2.10;;
10134;SDS011;5107;48.850;8.924;2023-08-31T07:52:57;2.97;;;1.77;;
10134;SDS011;5107;48.850;8.924;2023-08-31T07:55:22;4.97;;;2.40;;
10134;SDS011;5107;48.850;8.924;2023-08-31T07:57:48;4.63;;;2.33;;
10134;SDS011;5107;48.850;8.924;2023-08-31T08:00:13;5.57;;;2.23;;
10134;SDS011;5107;48.850;8.924;2023-08-31T08:02:41;3.80;;;2.20;;
10134;SDS011;5107;48.850;8.924;2023-08-31T08:05:07;4.57;;;2.07;;
10134;SDS011;5107;48.850;8.924;2023-08-31T08:07:32;3.07;;;2.00;;
10134;SDS011;5107;48.850;8.924;2023-08-31T08:09:58;4.07;;;2.00;;
10134;SDS011;5107;48.850;8.924;2023-08-31T08:12:24;3.67;;;2.10;;
10134;SDS011;5107;48.850;8.924;2023-08-31T08:14:50;2.23;;;2.00;;
10134;SDS011;5107;48.850;8.924;2023-08-31T08:17:15;3.87;;;2.30;;
10134;SDS011;5107;48.850;8.924;2023-08-31T08:19:41;3.67;;;2.40;;
10134;SDS011;5107;48.850;8.924;2023-08-31T08:22:06;3.60;;;2.27;;
10134;SDS011;5107;48.850;8.924;2023-08-31T08:24:32;3.37;;;2.30;;
10134;SDS011;5107;48.850;8.924;2023-08-31T08:26:57;3.87;;;2.13;;
10134;SDS011;5107;48.850;8.924;2023-08-31T08:29:22;4.53;;;2.13;;
10134;SDS011;5107;48.850;8.924;2023-08-31T08:31:48;5.33;;;2.23;;
10134;SDS011;5107;48.850;8.924;2023-08-31T08:34:13;5.90;;;2.57;;
10134;SDS011;5107;48.850;8.924;2023-08-31T08:36:38;6.53;;;2.40;;
10134;SDS011;5107;48.850;8.924;2023-08-31T08:39:03;3.20;;;2.10;;
10134;SDS011;5107;48.850;8.924;2023-08-31T08:41:29;4.13;;;2.23;;
10134;SDS011;5107;48.850;8.924;2023-08-31T08:43:54;2.30;;;1.80;;
10134;SDS011;5107;48.850;8.924;2023-08-31T08:46:26;3.63;;;2.10;;
10134;SDS011;5107;48.850;8.924;2023-08-31T08:48:52;4.53;;;2.27;;
10134;SDS011;5107;48.850;8.924;2023-08-31T08:51:19;2.57;;;2.00;;
10134;SDS011;5107;48.850;8.924;2023-08-31T08:53:46;3.60;;;2.00;;
10134;SDS011;5107;48.850;8.924;2023-08-31T08:56:12;3.63;;;2.13;;
10134;SDS011;5107;48.850;8.924;2023-08-31T08:58:38;3.00;;;2.10;;
10134;SDS011;5107;48.850;8.924;2023-08-31T09:01:03;5.03;;;2.20;;
10134;SDS011;5107;48.850;8.924;2023-08-31T09:03:29;3.00;;;2.07;;
10134;SDS011;5107;48.850;8.924;2023-08-31T09:05:54;3.07;;;1.90;;
10134;SDS011;5107;48.850;8.924;2023-08-31T09:08:26;2.90;;;1.80;;
10134;SDS011;5107;48.850;8.924;2023-08-31T09:10:53;6.47;;;2.30;;
10134;SDS011;5107;48.850;8.924;2023-08-31T09:13:20;4.30;;;2.30;;
10134;SDS011;5107;48.850;8.924;2023-08-31T09:15:46;4.20;;;2.13;;
10134;SDS011;5107;48.850;8.924;2023-08-31T09:20:48;4.97;;;2.20;;
10134;SDS011;5107;48.850;8.924;2023-08-31T09:23:14;3.50;;;2.10;;
10134;SDS011;5107;48.850;8.924;2023-08-31T09:25:40;4.37;;;2.10;;
10134;SDS011;5107;48.850;8.924;2023-08-31T09:28:07;2.90;;;1.80;;
10134;SDS011;5107;48.850;8.924;2023-08-31T09:30:36;3.00;;;1.90;;
10134;SDS011;5107;48.850;8.924;2023-08-31T09:33:03;3.43;;;2.23;;
10134;SDS011;5107;48.850;8.924;2023-08-31T09:35:39;2.20;;;1.90;;
10134;SDS011;5107;48.850;8.924;2023-08-31T09:38:08;5.77;;;2.43;;
10134;SDS011;5107;48.850;8.924;2023-08-31T09:40:34;3.87;;;2.00;;
10134;SDS011;5107;48.850;8.924;2023-08-31T09:43:01;3.27;;;2.10;;
10134;SDS011;5107;48.850;8.924;2023-08-31T09:45:31;2.83;;;2.07;;
10134;SDS011;5107;48.850;8.924;2023-08-31T09:48:01;5.20;;;2.30;;
10134;SDS011;5107;48.850;8.924;2023-08-31T09:50:31;2.23;;;1.73;;
10134;SDS011;5107;48.850;8.924;2023-08-31T09:53:02;3.37;;;2.03;;
10134;SDS011;5107;48.850;8.924;2023-08-31T09:55:29;3.83;;;2.10;;
10134;SDS011;5107;48.850;8.924;2023-08-31T09:57:56;3.73;;;2.20;;
10134;SDS011;5107;48.850;8.924;2023-08-31T10:00:26;4.10;;;1.83;;
10134;SDS011;5107;48.850;8.924;2023-08-31T10:02:54;4.67;;;2.30;;
10134;SDS011;5107;48.850;8.924;2023-08-31T10:05:21;3.93;;;2.37;;
10134;SDS011;5107;48.850;8.924;2023-08-31T10:07:47;4.00;;;2.30;;
10134;SDS011;5107;48.850;8.924;2023-08-31T10:10:15;4.23;;;2.00;;
10134;SDS011;5107;48.850;8.924;2023-08-31T10:12:41;3.97;;;2.27;;
10134;SDS011;5107;48.850;8.924;2023-08-31T10:15:08;5.60;;;2.40;;
10134;SDS011;5107;48.850;8.924;2023-08-31T10:17:34;3.27;;;1.97;;
10134;SDS011;5107;48.850;8.924;2023-08-31T10:20:01;4.30;;;1.90;;
10134;SDS011;5107;48.850;8.924;2023-08-31T10:22:27;2.90;;;1.90;;
10134;SDS011;5107;48.850;8.924;2023-08-31T10:25:00;4.90;;;1.90;;
10134;SDS011;5107;48.850;8.924;2023-08-31T10:27:28;5.93;;;2.07;;
10134;SDS011;5107;48.850;8.924;2023-08-31T10:30:12;3.70;;;2.20;;
10134;SDS011;5107;48.850;8.924;2023-08-31T10:32:38;4.13;;;2.30;;
10134;SDS011;5107;48.850;8.924;2023-08-31T10:35:04;5.93;;;2.40;;
10134;SDS011;5107;48.850;8.924;2023-08-31T10:37:30;5.50;;;2.20;;
10134;SDS011;5107;48.850;8.924;2023-08-31T10:42:51;5.43;;;2.13;;
10134;SDS011;5107;48.850;8.924;2023-08-31T10:45:43;5.10;;;2.10;;
10134;SDS011;5107;48.850;8.924;2023-08-31T10:48:09;4.90;;;2.30;;
10134;SDS011;5107;48.850;8.924;2023-08-31T10:50:40;5.50;;;2.37;;
10134;SDS011;5107;48.850;8.924;2023-08-31T10:53:09;4.23;;;2.30;;
10134;SDS011;5107;48.850;8.924;2023-08-31T10:55:54;4.17;;;2.10;;
10134;SDS011;5107;48.850;8.924;2023-08-31T10:58:20;6.90;;;2.40;;
10134;SDS011;5107;48.850;8.924;2023-08-31T11:00:46;5.30;;;2.50;;
10134;SDS011;5107;48.850;8.924;2023-08-31T11:03:21;5.40;;;2.60;;
10134;SDS011;5107;48.850;8.924;2023-08-31T11:05:50;3.53;;;1.97;;
10134;SDS011;5107;48.850;8.924;2023-08-31T11:08:21;5.20;;;2.23;;
10134;SDS011;5107;48.850;8.924;2023-08-31T11:10:47;3.23;;;2.40;;
10134;SDS011;5107;48.850;8.924;2023-08-31T11:13:16;6.73;;;2.77;;
10134;SDS011;5107;48.850;8.924;2023-08-31T11:15:47;5.03;;;2.30;;
10134;SDS011;5107;48.850;8.924;2023-08-31T11:18:12;4.80;;;2.30;;
10134;SDS011;5107;48.850;8.924;2023-08-31T11:20:41;2.87;;;2.23;;
10134;SDS011;5107;48.850;8.924;2023-08-31T11:23:07;4.30;;;2.60;;
10134;SDS011;5107;48.850;8.924;2023-08-31T11:25:32;3.53;;;2.30;;
10134;SDS011;5107;48.850;8.924;2023-08-31T11:27:59;7.10;;;2.33;;
10134;SDS011;5107;48.850;8.924;2023-08-31T11:30:32;4.10;;;2.23;;
10134;SDS011;5107;48.850;8.924;2023-08-31T11:33:02;4.87;;;2.43;;
10134;SDS011;5107;48.850;8.924;2023-08-31T11:35:31;4.10;;;2.30;;
10134;SDS011;5107;48.850;8.924;2023-08-31T11:37:58;3.57;;;2.30;;
10134;SDS011;5107;48.850;8.924;2023-08-31T11:40:28;3.57;;;2.40;;
10134;SDS011;5107;48.850;8.924;2023-08-31T11:42:53;4.77;;;2.57;;
10134;SDS011;5107;48.850;8.924;2023-08-31T11:45:19;4.80;;;2.50;;
10134;SDS011;5107;48.850;8.924;2023-08-31T11:47:47;2.73;;;2.00;;
10134;SDS011;5107;48.850;8.924;2023-08-31T11:50:13;4.07;;;2.57;;
10134;SDS011;5107;48.850;8.924;2023-08-31T11:52:39;4.50;;;2.40;;
10134;SDS011;5107;48.850;8.924;2023-08-31T11:55:11;2.90;;;2.07;;
10134;SDS011;5107;48.850;8.924;2023-08-31T11:57:37;4.90;;;2.33;;
10134;SDS011;5107;48.850;8.924;2023-08-31T12:00:03;3.73;;;2.20;;
10134;SDS011;5107;48.850;8.924;2023-08-31T12:02:34;3.30;;;2.37;;
10134;SDS011;5107;48.850;8.924;2023-08-31T12:05:01;2.67;;;2.10;;
10134;SDS011;5107;48.850;8.924;2023-08-31T12:07:26;3.73;;;2.43;;
10134;SDS011;5107;48.850;8.924;2023-08-31T12:09:51;3.10;;;2.13;;
10134;SDS011;5107;48.850;8.924;2023-08-31T12:12:20;3.87;;;2.20;;
10134;SDS011;5107;48.850;8.924;2023-08-31T12:14:46;3.60;;;1.90;;
10134;SDS011;5107;48.850;8.924;2023-08-31T12:17:12;4.63;;;2.33;;
10134;SDS011;5107;48.850;8.924;2023-08-31T12:19:38;4.80;;;2.27;;
10134;SDS011;5107;48.850;8.924;2023-08-31T12:22:04;3.70;;;2.20;;
10134;SDS011;5107;48.850;8.924;2023-08-31T12:24:39;6.03;;;2.40;;
10134;SDS011;5107;48.850;8.924;2023-08-31T12:27:08;3.07;;;2.00;;
10134;SDS011;5107;48.850;8.924;2023-08-31T12:29:34;2.53;;;2.00;;
10134;SDS011;5107;48.850;8.924;2023-08-31T12:32:00;6.23;;;2.43;;
10134;SDS011;5107;48.850;8.924;2023-08-31T12:34:26;3.43;;;2.33;;
10134;SDS011;5107;48.850;8.924;2023-08-31T12:36:51;4.50;;;2.20;;
10134;SDS011;5107;48.850;8.924;2023-08-31T12:39:17;3.93;;;2.13;;
10134;SDS011;5107;48.850;8.924;2023-08-31T12:41:43;3.53;;;2.13;;
10134;SDS011;5107;48.850;8.924;2023-08-31T12:44:08;3.87;;;1.90;;
10134;SDS011;5107;48.850;8.924;2023-08-31T12:46:33;5.40;;;2.43;;
10134;SDS011;5107;48.850;8.924;2023-08-31T12:49:02;8.27;;;2.40;;
10134;SDS011;5107;48.850;8.924;2023-08-31T12:51:29;5.67;;;2.30;;
10134;SDS011;5107;48.850;8.924;2023-08-31T12:53:55;4.53;;;1.83;;
10134;SDS011;5107;48.850;8.924;2023-08-31T12:56:21;5.73;;;2.40;;
10134;SDS011;5107;48.850;8.924;2023-08-31T12:58:49;3.73;;;2.50;;
10134;SDS011;5107;48.850;8.924;2023-08-31T13:01:16;5.23;;;2.40;;
10134;SDS011;5107;48.850;8.924;2023-08-31T13:03:42;7.10;;;2.50;;
10134;SDS011;5107;48.850;8.924;2023-08-31T13:06:08;5.57;;;2.40;;
10134;SDS011;5107;48.850;8.924;2023-08-31T13:08:33;3.70;;;2.20;;
10134;SDS011;5107;48.850;8.924;2023-08-31T13:10:59;6.40;;;2.30;;
10134;SDS011;5107;48.850;8.924;2023-08-31T13:13:25;4.10;;;2.23;;
10134;SDS011;5107;48.850;8.924;2023-08-31T13:15:50;4.10;;;1.97;;
10134;SDS011;5107;48.850;8.924;2023-08-31T13:18:15;4.47;;;2.60;;
10134;SDS011;5107;48.850;8.924;2023-08-31T13:20:48;3.30;;;2.20;;
10134;SDS011;5107;48.850;8.924;2023-08-31T13:23:14;3.93;;;2.27;;
10134;SDS011;5107;48.850;8.924;2023-08-31T13:25:39;5.13;;;2.33;;
10134;SDS011;5107;48.850;8.924;2023-08-31T13:28:05;4.70;;;2.20;;
10134;SDS011;5107;48.850;8.924;2023-08-31T13:30:30;3.60;;;2.33;;
10134;SDS011;5107;48.850;8.924;2023-08-31T13:32:56;4.20;;;2.10;;
10134;SDS011;5107;48.850;8.924;2023-08-31T13:35:21;3.93;;;2.10;;
10134;SDS011;5107;48.850;8.924;2023-08-31T13:37:46;3.80;;;2.23;;
10134;SDS011;5107;48.850;8.924;2023-08-31T13:40:12;3.70;;;2.17;;
10134;SDS011;5107;48.850;8.924;2023-08-31T13:42:37;3.77;;;2.17;;
10134;SDS011;5107;48.850;8.924;2023-08-31T13:45:18;4.50;;;2.30;;
10134;SDS011;5107;48.850;8.924;2023-08-31T13:47:43;4.27;;;2.10;;
10134;SDS011;5107;48.850;8.924;2023-08-31T13:50:12;5.90;;;2.27;;
10134;SDS011;5107;48.850;8.924;2023-08-31T13:52:37;5.70;;;2.30;;
10134;SDS011;5107;48.850;8.924;2023-08-31T13:55:03;5.67;;;2.23;;
10134;SDS011;5107;48.850;8.924;2023-08-31T13:57:28;3.33;;;2.30;;
10134;SDS011;5107;48.850;8.924;2023-08-31T13:59:54;2.93;;;2.13;;
10134;SDS011;5107;48.850;8.924;2023-08-31T14:02:19;2.90;;;2.00;;
10134;SDS011;5107;48.850;8.924;2023-08-31T14:04:44;3.97;;;2.17;;
10134;SDS011;5107;48.850;8.924;2023-08-31T14:07:10;4.80;;;2.33;;
10134;SDS011;5107;48.850;8.924;2023-08-31T14:09:35;3.77;;;2.30;;
10134;SDS011;5107;48.850;8.924;2023-08-31T14:12:00;6.27;;;2.40;;
10134;SDS011;5107;48.850;8.924;2023-08-31T14:14:26;4.50;;;2.20;;
10134;SDS011;5107;48.850;8.924;2023-08-31T14:16:52;4.37;;;2.20;;
10134;SDS011;5107;48.850;8.924;2023-08-31T14:19:17;5.83;;;2.50;;
10134;SDS011;5107;48.850;8.924;2023-08-31T14:21:45;4.17;;;2.20;;
10134;SDS011;5107;48.850;8.924;2023-08-31T14:24:10;4.20;;;2.40;;
10134;SDS011;5107;48.850;8.924;2023-08-31T14:26:35;4.83;;;2.20;;
10134;SDS011;5107;48.850;8.924;2023-08-31T14:29:01;5.70;;;2.50;;
10134;SDS011;5107;48.850;8.924;2023-08-31T14:31:26;3.73;;;2.27;;
10134;SDS011;5107;48.850;8.924;2023-08-31T14:33:51;5.83;;;2.67;;
10134;SDS011;5107;48.850;8.924;2023-08-31T14:36:17;3.67;;;2.13;;
10134;SDS011;5107;48.850;8.924;2023-08-31T14:38:43;4.67;;;2.20;;
10134;SDS011;5107;48.850;8.924;2023-08-31T14:41:10;5.73;;;2.30;;
10134;SDS011;5107;48.850;8.924;2023-08-31T14:43:35;4.47;;;2.30;;
10134;SDS011;5107;48.850;8.924;2023-08-31T14:46:01;3.80;;;2.30;;
10134;SDS011;5107;48.850;8.924;2023-08-31T14:48:27;5.13;;;2.43;;
10134;SDS011;5107;48.850;8.924;2023-08-31T14:50:53;5.57;;;2.47;;
10134;SDS011;5107;48.850;8.924;2023-08-31T14:53:19;3.37;;;2.03;;
10134;SDS011;5107;48.850;8.924;2023-08-31T14:55:50;4.63;;;2.33;;
10134;SDS011;5107;48.850;8.924;2023-08-31T14:58:16;3.90;;;2.50;;
10134;SDS011;5107;48.850;8.924;2023-08-31T15:00:42;4.80;;;2.30;;
10134;SDS011;5107;48.850;8.924;2023-08-31T15:03:08;3.90;;;2.50;;
10134;SDS011;5107;48.850;8.924;2023-08-31T15:05:34;5.00;;;2.30;;
10134;SDS011;5107;48.850;8.924;2023-08-31T15:08:01;4.57;;;2.10;;